sensor_id;sensor_type;location;lat;lon;timestamp;pressure;altitude;pressure_sealevel;temperature;humidity
50394;BME280;36308;46.312;25.288;2022-11-20T00:01:20;95538.09;;;6.60;74.66
50394;BME280;36308;46.312;25.288;2022-11-20T00:03:46;95539.94;;;6.60;74.88
50394;BME280;36308;46.312;25.288;2022-11-20T00:06:14;95539.44;;;6.63;74.34
50394;BME280;36308;46.312;25.288;2022-11-20T00:08:40;95532.47;;;6.62;74.68
50394;BME280;36308;46.312;25.288;2022-11-20T00:11:08;95528.78;;;6.63;74.63
50394;BME280;36308;46.312;25.288;2022-11-20T00:13:35;95515.19;;;6.64;74.60
50394;BME280;36308;46.312;25.288;2022-11-20T00:16:02;95520.81;;;6.68;74.73
50394;BME280;36308;46.312;25.288;2022-11-20T00:18:29;95518.41;;;6.66;74.25
50394;BME280;36308;46.312;25.288;2022-11-20T00:21:01;95517.09;;;6.69;74.66
50394;BME280;36308;46.312;25.288;2022-11-20T00:23:26;95518.22;;;6.73;74.76
50394;BME280;36308;46.312;25.288;2022-11-20T00:25:52;95516.13;;;6.75;74.68
50394;BME280;36308;46.312;25.288;2022-11-20T00:28:17;95511.75;;;6.69;74.31
50394;BME280;36308;46.312;25.288;2022-11-20T00:30:42;95504.88;;;6.73;74.62
50394;BME280;36308;46.312;25.288;2022-11-20T00:33:08;95493.63;;;6.71;74.93
50394;BME280;36308;46.312;25.288;2022-11-20T00:35:33;95516.13;;;6.75;74.27
50394;BME280;36308;46.312;25.288;2022-11-20T00:37:59;95500.09;;;6.75;74.83
50394;BME280;36308;46.312;25.288;2022-11-20T00:40:24;95494.25;;;6.78;74.84
50394;BME280;36308;46.312;25.288;2022-11-20T00:42:49;95507.88;;;6.77;74.62
50394;BME280;36308;46.312;25.288;2022-11-20T00:45:15;95509.22;;;6.79;74.98
50394;BME280;36308;46.312;25.288;2022-11-20T00:47:40;95501.22;;;6.79;74.54
50394;BME280;36308;46.312;25.288;2022-11-20T00:50:06;95501.22;;;6.79;74.63
50394;BME280;36308;46.312;25.288;2022-11-20T00:52:31;95491.34;;;6.80;75.09
50394;BME280;36308;46.312;25.288;2022-11-20T00:54:57;95499.91;;;6.82;74.79
50394;BME280;36308;46.312;25.288;2022-11-20T00:57:22;95494.31;;;6.83;75.20
50394;BME280;36308;46.312;25.288;2022-11-20T00:59:47;95482.00;;;6.82;75.10
50394;BME280;36308;46.312;25.288;2022-11-20T01:02:13;95496.50;;;6.86;74.93
50394;BME280;36308;46.312;25.288;2022-11-20T01:04:40;95484.75;;;6.87;75.10
50394;BME280;36308;46.312;25.288;2022-11-20T01:07:05;95482.88;;;6.88;74.82
50394;BME280;36308;46.312;25.288;2022-11-20T01:09:31;95503.22;;;6.89;75.35
50394;BME280;36308;46.312;25.288;2022-11-20T01:11:56;95504.59;;;6.92;75.20
50394;BME280;36308;46.312;25.288;2022-11-20T01:14:22;95498.75;;;6.95;75.00
50394;BME280;36308;46.312;25.288;2022-11-20T01:16:50;95496.06;;;6.95;75.50
50394;BME280;36308;46.312;25.288;2022-11-20T01:19:21;95492.13;;;6.97;75.15
50394;BME280;36308;46.312;25.288;2022-11-20T01:21:49;95485.94;;;6.97;75.27
50394;BME280;36308;46.312;25.288;2022-11-20T01:24:17;95482.78;;;7.00;75.89
50394;BME280;36308;46.312;25.288;2022-11-20T01:26:44;95480.59;;;6.97;75.28
50394;BME280;36308;46.312;25.288;2022-11-20T01:29:15;95491.59;;;7.00;75.38
50394;BME280;36308;46.312;25.288;2022-11-20T01:31:41;95483.34;;;7.02;75.44
50394;BME280;36308;46.312;25.288;2022-11-20T01:34:10;95483.34;;;7.02;75.22
50394;BME280;36308;46.312;25.288;2022-11-20T01:36:37;95494.84;;;7.02;74.89
50394;BME280;36308;46.312;25.288;2022-11-20T01:39:13;95488.69;;;7.02;74.80
50394;BME280;36308;46.312;25.288;2022-11-20T01:41:39;95492.16;;;7.02;74.91
50394;BME280;36308;46.312;25.288;2022-11-20T01:47:09;95472.09;;;7.00;74.93
50394;BME280;36308;46.312;25.288;2022-11-20T01:49:42;95467.00;;;6.98;75.38
50394;BME280;36308;46.312;25.288;2022-11-20T01:52:23;95475.88;;;7.04;75.52
50394;BME280;36308;46.312;25.288;2022-11-20T01:55:09;95466.78;;;7.05;75.05
50394;BME280;36308;46.312;25.288;2022-11-20T01:57:36;95453.38;;;7.00;75.35
50394;BME280;36308;46.312;25.288;2022-11-20T02:00:08;95457.19;;;7.04;75.17
50394;BME280;36308;46.312;25.288;2022-11-20T02:02:36;95459.28;;;7.02;75.31
50394;BME280;36308;46.312;25.288;2022-11-20T02:05:37;95472.13;;;7.05;75.64
50394;BME280;36308;46.312;25.288;2022-11-20T02:08:05;95471.66;;;7.08;75.59
50394;BME280;36308;46.312;25.288;2022-11-20T02:10:31;95470.81;;;7.07;75.79
50394;BME280;36308;46.312;25.288;2022-11-20T02:12:57;95479.41;;;7.09;75.63
50394;BME280;36308;46.312;25.288;2022-11-20T02:15:42;95476.50;;;7.11;75.80
50394;BME280;36308;46.312;25.288;2022-11-20T02:18:09;95476.50;;;7.11;75.94
50394;BME280;36308;46.312;25.288;2022-11-20T02:20:35;95476.50;;;7.11;76.00
50394;BME280;36308;46.312;25.288;2022-11-20T02:23:09;95466.03;;;7.09;76.06
50394;BME280;36308;46.312;25.288;2022-11-20T02:25:37;95476.00;;;7.14;76.29
50394;BME280;36308;46.312;25.288;2022-11-20T02:28:05;95472.03;;;7.17;76.25
50394;BME280;36308;46.312;25.288;2022-11-20T02:30:30;95486.19;;;7.17;76.33
50394;BME280;36308;46.312;25.288;2022-11-20T02:32:57;95477.06;;;7.13;76.19
50394;BME280;36308;46.312;25.288;2022-11-20T02:37:51;95475.50;;;7.17;76.07
50394;BME280;36308;46.312;25.288;2022-11-20T02:40:18;95481.41;;;7.19;76.37
50394;BME280;36308;46.312;25.288;2022-11-20T02:42:44;95471.78;;;7.18;76.23
50394;BME280;36308;46.312;25.288;2022-11-20T02:45:10;95474.47;;;7.18;76.73
50394;BME280;36308;46.312;25.288;2022-11-20T02:47:35;95474.75;;;7.22;76.49
50394;BME280;36308;46.312;25.288;2022-11-20T02:50:01;95467.56;;;7.22;76.95
50394;BME280;36308;46.312;25.288;2022-11-20T02:52:26;95469.16;;;7.23;76.42
50394;BME280;36308;46.312;25.288;2022-11-20T02:54:52;95463.00;;;7.23;76.31
50394;BME280;36308;46.312;25.288;2022-11-20T02:57:17;95458.69;;;7.22;76.42
50394;BME280;36308;46.312;25.288;2022-11-20T02:59:43;95453.91;;;7.24;76.71
50394;BME280;36308;46.312;25.288;2022-11-20T03:02:08;95445.03;;;7.18;76.48
50394;BME280;36308;46.312;25.288;2022-11-20T03:04:33;95453.13;;;7.23;76.42
50394;BME280;36308;46.312;25.288;2022-11-20T03:06:59;95447.22;;;7.21;76.77
50394;BME280;36308;46.312;25.288;2022-11-20T03:09:24;95446.97;;;7.23;76.40
50394;BME280;36308;46.312;25.288;2022-11-20T03:11:50;95439.75;;;7.23;76.00
50394;BME280;36308;46.312;25.288;2022-11-20T03:14:15;95436.50;;;7.21;76.15
50394;BME280;36308;46.312;25.288;2022-11-20T03:16:41;95432.25;;;7.20;76.70
50394;BME280;36308;46.312;25.288;2022-11-20T03:19:06;95413.75;;;7.19;76.37
50394;BME280;36308;46.312;25.288;2022-11-20T03:21:35;95427.38;;;7.17;76.51
50394;BME280;36308;46.312;25.288;2022-11-20T03:24:01;95400.16;;;7.20;76.77
50394;BME280;36308;46.312;25.288;2022-11-20T03:26:27;95426.88;;;7.20;76.48
50394;BME280;36308;46.312;25.288;2022-11-20T03:28:55;95409.22;;;7.19;76.56
50394;BME280;36308;46.312;25.288;2022-11-20T03:31:24;95415.88;;;7.17;76.30
50394;BME280;36308;46.312;25.288;2022-11-20T03:33:50;95412.66;;;7.15;76.56
50394;BME280;36308;46.312;25.288;2022-11-20T03:36:16;95418.31;;;7.18;76.15
50394;BME280;36308;46.312;25.288;2022-11-20T03:38:43;95412.13;;;7.18;76.32
50394;BME280;36308;46.312;25.288;2022-11-20T03:41:28;95415.88;;;7.17;76.50
50394;BME280;36308;46.312;25.288;2022-11-20T03:43:59;95425.22;;;7.14;75.96
50394;BME280;36308;46.312;25.288;2022-11-20T03:46:25;95440.19;;;7.15;76.45
50394;BME280;36308;46.312;25.288;2022-11-20T03:48:52;95438.03;;;7.12;75.98
50394;BME280;36308;46.312;25.288;2022-11-20T03:51:22;95426.25;;;7.13;76.34
50394;BME280;36308;46.312;25.288;2022-11-20T03:53:51;95434.28;;;7.13;76.33
50394;BME280;36308;46.312;25.288;2022-11-20T03:56:18;95421.44;;;7.10;76.39
50394;BME280;36308;46.312;25.288;2022-11-20T03:58:44;95428.38;;;7.11;76.16
50394;BME280;36308;46.312;25.288;2022-11-20T04:01:16;95442.81;;;7.10;75.87
50394;BME280;36308;46.312;25.288;2022-11-20T04:03:42;95445.72;;;7.08;76.13
50394;BME280;36308;46.312;25.288;2022-11-20T04:06:14;95433.41;;;7.07;75.88
50394;BME280;36308;46.312;25.288;2022-11-20T04:08:40;95432.59;;;7.07;75.91
50394;BME280;36308;46.312;25.288;2022-11-20T04:11:26;95436.34;;;7.06;76.12
50394;BME280;36308;46.312;25.288;2022-11-20T04:14:00;95440.88;;;7.05;76.15
50394;BME280;36308;46.312;25.288;2022-11-20T04:16:28;95451.56;;;7.05;75.92
50394;BME280;36308;46.312;25.288;2022-11-20T04:18:55;95448.09;;;7.05;76.12
50394;BME280;36308;46.312;25.288;2022-11-20T04:21:21;95440.06;;;7.05;76.34
50394;BME280;36308;46.312;25.288;2022-11-20T04:23:48;95444.63;;;7.04;76.25
50394;BME280;36308;46.312;25.288;2022-11-20T04:26:13;95448.09;;;7.05;76.36
50394;BME280;36308;46.312;25.288;2022-11-20T04:28:39;95452.88;;;7.03;76.28
50394;BME280;36308;46.312;25.288;2022-11-20T04:31:07;95460.34;;;7.01;75.73
50394;BME280;36308;46.312;25.288;2022-11-20T04:33:33;95449.16;;;7.04;75.63
50394;BME280;36308;46.312;25.288;2022-11-20T04:36:07;95449.16;;;7.04;75.59
50394;BME280;36308;46.312;25.288;2022-11-20T04:38:33;95448.31;;;7.03;75.87
50394;BME280;36308;46.312;25.288;2022-11-20T04:41:00;95437.34;;;7.00;75.50
50394;BME280;36308;46.312;25.288;2022-11-20T04:43:26;95427.69;;;6.99;75.44
50394;BME280;36308;46.312;25.288;2022-11-20T04:45:56;95422.31;;;6.94;75.25
50394;BME280;36308;46.312;25.288;2022-11-20T04:48:22;95432.47;;;6.97;75.86
50394;BME280;36308;46.312;25.288;2022-11-20T04:50:47;95433.81;;;6.94;75.54
50394;BME280;36308;46.312;25.288;2022-11-20T04:53:13;95423.91;;;6.95;76.10
50394;BME280;36308;46.312;25.288;2022-11-20T04:55:38;95422.31;;;6.94;75.87
50394;BME280;36308;46.312;25.288;2022-11-20T04:58:04;95406.75;;;6.91;75.79
50394;BME280;36308;46.312;25.288;2022-11-20T05:00:29;95395.03;;;6.92;75.90
50394;BME280;36308;46.312;25.288;2022-11-20T05:02:54;95407.59;;;6.91;75.52
50394;BME280;36308;46.312;25.288;2022-11-20T05:05:20;95412.38;;;6.89;75.45
50394;BME280;36308;46.312;25.288;2022-11-20T05:07:45;95391.25;;;6.87;75.32
50394;BME280;36308;46.312;25.288;2022-11-20T05:10:11;95402.41;;;6.84;75.13
50394;BME280;36308;46.312;25.288;2022-11-20T05:12:36;95392.25;;;6.81;74.81
50394;BME280;36308;46.312;25.288;2022-11-20T05:15:02;95386.88;;;6.81;74.89
50394;BME280;36308;46.312;25.288;2022-11-20T05:17:27;95377.25;;;6.80;75.20
50394;BME280;36308;46.312;25.288;2022-11-20T05:19:52;95366.00;;;6.78;75.12
50394;BME280;36308;46.312;25.288;2022-11-20T05:22:18;95349.69;;;6.75;74.86
50394;BME280;36308;46.312;25.288;2022-11-20T05:24:43;95347.56;;;6.77;75.12
50394;BME280;36308;46.312;25.288;2022-11-20T05:27:09;95327.47;;;6.74;74.80
50394;BME280;36308;46.312;25.288;2022-11-20T05:29:34;95337.13;;;6.75;75.35
50394;BME280;36308;46.312;25.288;2022-11-20T05:31:59;95333.09;;;6.73;74.79
50394;BME280;36308;46.312;25.288;2022-11-20T05:34:25;95323.66;;;6.65;75.31
50394;BME280;36308;46.312;25.288;2022-11-20T05:36:50;95318.88;;;6.67;75.15
50394;BME280;36308;46.312;25.288;2022-11-20T05:39:16;95299.06;;;6.63;75.14
50394;BME280;36308;46.312;25.288;2022-11-20T05:41:41;95307.63;;;6.65;75.18
50394;BME280;36308;46.312;25.288;2022-11-20T05:44:06;95302.78;;;6.62;75.17
50394;BME280;36308;46.312;25.288;2022-11-20T05:46:32;95307.63;;;6.65;75.67
50394;BME280;36308;46.312;25.288;2022-11-20T05:48:58;95331.66;;;6.65;75.54
50394;BME280;36308;46.312;25.288;2022-11-20T05:51:25;95322.84;;;6.64;75.89
50394;BME280;36308;46.312;25.288;2022-11-20T05:53:50;95301.72;;;6.63;75.27
50394;BME280;36308;46.312;25.288;2022-11-20T05:56:17;95312.66;;;6.61;75.41
50394;BME280;36308;46.312;25.288;2022-11-20T05:58:44;95297.94;;;6.59;75.08
50394;BME280;36308;46.312;25.288;2022-11-20T06:01:11;95298.75;;;6.59;75.56
50394;BME280;36308;46.312;25.288;2022-11-20T06:03:37;95303.28;;;6.59;75.36
50394;BME280;36308;46.312;25.288;2022-11-20T06:06:04;95310.50;;;6.58;75.39
50394;BME280;36308;46.312;25.288;2022-11-20T06:08:31;95307.81;;;6.58;75.39
50394;BME280;36308;46.312;25.288;2022-11-20T06:10:56;95318.50;;;6.58;75.55
50394;BME280;36308;46.312;25.288;2022-11-20T06:13:22;95307.00;;;6.58;75.63
50394;BME280;36308;46.312;25.288;2022-11-20T06:15:51;95300.06;;;6.57;75.92
50394;BME280;36308;46.312;25.288;2022-11-20T06:18:17;95300.63;;;6.59;76.10
50394;BME280;36308;46.312;25.288;2022-11-20T06:20:43;95317.69;;;6.58;75.86
50394;BME280;36308;46.312;25.288;2022-11-20T06:23:08;95316.41;;;6.60;75.81
50394;BME280;36308;46.312;25.288;2022-11-20T06:25:40;95314.47;;;6.56;75.94
50394;BME280;36308;46.312;25.288;2022-11-20T06:28:06;95344.72;;;6.61;75.74
50394;BME280;36308;46.312;25.288;2022-11-20T06:30:32;95340.16;;;6.62;76.09
50394;BME280;36308;46.312;25.288;2022-11-20T06:32:57;95329.25;;;6.63;75.95
50394;BME280;36308;46.312;25.288;2022-11-20T06:35:22;95330.00;;;6.59;75.44
50394;BME280;36308;46.312;25.288;2022-11-20T06:37:48;95346.91;;;6.64;75.76
50394;BME280;36308;46.312;25.288;2022-11-20T06:40:13;95353.03;;;6.65;75.55
50394;BME280;36308;46.312;25.288;2022-11-20T06:42:39;95333.53;;;6.64;75.76
50394;BME280;36308;46.312;25.288;2022-11-20T06:45:04;95337.00;;;6.65;76.04
50394;BME280;36308;46.312;25.288;2022-11-20T06:47:30;95356.25;;;6.67;76.03
50394;BME280;36308;46.312;25.288;2022-11-20T06:49:55;95356.50;;;6.65;75.99
50394;BME280;36308;46.312;25.288;2022-11-20T06:52:21;95342.09;;;6.66;76.28
50394;BME280;36308;46.312;25.288;2022-11-20T06:54:46;95337.06;;;6.70;76.71
50394;BME280;36308;46.312;25.288;2022-11-20T06:57:12;95327.47;;;6.74;75.98
50394;BME280;36308;46.312;25.288;2022-11-20T06:59:37;95319.47;;;6.74;76.37
50394;BME280;36308;46.312;25.288;2022-11-20T07:02:02;95301.88;;;6.78;76.91
50394;BME280;36308;46.312;25.288;2022-11-20T07:04:28;95298.47;;;6.83;76.12
50394;BME280;36308;46.312;25.288;2022-11-20T07:06:53;95298.75;;;6.86;76.88
50394;BME280;36308;46.312;25.288;2022-11-20T07:09:18;95312.69;;;6.88;76.52
50394;BME280;36308;46.312;25.288;2022-11-20T07:11:44;95306.84;;;6.92;76.60
50394;BME280;36308;46.312;25.288;2022-11-20T07:14:09;95317.00;;;6.95;76.80
50394;BME280;36308;46.312;25.288;2022-11-20T07:16:35;95333.88;;;6.95;76.76
50394;BME280;36308;46.312;25.288;2022-11-20T07:19:00;95343.81;;;7.00;77.08
50394;BME280;36308;46.312;25.288;2022-11-20T07:21:26;95344.38;;;7.02;77.09
50394;BME280;36308;46.312;25.288;2022-11-20T07:23:52;95352.09;;;7.03;77.19
50394;BME280;36308;46.312;25.288;2022-11-20T07:26:17;95360.69;;;7.05;77.24
50394;BME280;36308;46.312;25.288;2022-11-20T07:28:45;95371.69;;;7.09;77.32
50394;BME280;36308;46.312;25.288;2022-11-20T07:31:11;95381.88;;;7.12;76.92
50394;BME280;36308;46.312;25.288;2022-11-20T07:33:38;95369.88;;;7.15;77.03
50394;BME280;36308;46.312;25.288;2022-11-20T07:36:03;95371.78;;;7.19;77.19
50394;BME280;36308;46.312;25.288;2022-11-20T07:38:29;95349.91;;;7.22;77.22
50394;BME280;36308;46.312;25.288;2022-11-20T07:40:58;95352.06;;;7.25;77.26
50394;BME280;36308;46.312;25.288;2022-11-20T07:43:24;95346.78;;;7.31;77.35
50394;BME280;36308;46.312;25.288;2022-11-20T07:45:50;95351.06;;;7.32;77.20
50394;BME280;36308;46.312;25.288;2022-11-20T07:48:15;95342.53;;;7.35;77.11
50394;BME280;36308;46.312;25.288;2022-11-20T07:50:41;95355.38;;;7.38;77.09
50394;BME280;36308;46.312;25.288;2022-11-20T07:53:07;95341.53;;;7.41;77.43
50394;BME280;36308;46.312;25.288;2022-11-20T07:55:33;95331.91;;;7.45;77.28
50394;BME280;36308;46.312;25.288;2022-11-20T07:57:58;95318.84;;;7.48;77.24
50394;BME280;36308;46.312;25.288;2022-11-20T08:00:25;95318.59;;;7.50;77.24
50394;BME280;36308;46.312;25.288;2022-11-20T08:02:50;95320.25;;;7.56;77.36
50394;BME280;36308;46.312;25.288;2022-11-20T08:05:16;95318.66;;;7.60;76.68
50394;BME280;36308;46.312;25.288;2022-11-20T08:07:43;95318.16;;;7.63;77.14
50394;BME280;36308;46.312;25.288;2022-11-20T08:10:10;95316.84;;;7.66;76.28
50394;BME280;36308;46.312;25.288;2022-11-20T08:12:36;95323.56;;;7.68;77.00
50394;BME280;36308;46.312;25.288;2022-11-20T08:15:20;95324.66;;;7.73;76.54
50394;BME280;36308;46.312;25.288;2022-11-20T08:17:45;95330.31;;;7.76;76.66
50394;BME280;36308;46.312;25.288;2022-11-20T08:20:11;95330.84;;;7.78;76.47
50394;BME280;36308;46.312;25.288;2022-11-20T08:22:36;95332.50;;;7.84;76.48
50394;BME280;36308;46.312;25.288;2022-11-20T08:25:02;95344.56;;;7.87;76.54
50394;BME280;36308;46.312;25.288;2022-11-20T08:27:27;95356.34;;;7.91;76.59
50394;BME280;36308;46.312;25.288;2022-11-20T08:29:52;95352.59;;;7.92;76.53
50394;BME280;36308;46.312;25.288;2022-11-20T08:32:18;95370.31;;;7.98;75.97
50394;BME280;36308;46.312;25.288;2022-11-20T08:34:43;95359.34;;;8.00;76.16
50394;BME280;36308;46.312;25.288;2022-11-20T08:37:09;95367.16;;;8.06;76.27
50394;BME280;36308;46.312;25.288;2022-11-20T08:39:34;95363.97;;;8.09;76.09
50394;BME280;36308;46.312;25.288;2022-11-20T08:41:59;95365.06;;;8.14;75.33
50394;BME280;36308;46.312;25.288;2022-11-20T08:44:25;95372.03;;;8.15;75.54
50394;BME280;36308;46.312;25.288;2022-11-20T08:46:50;95377.97;;;8.22;75.55
50394;BME280;36308;46.312;25.288;2022-11-20T08:49:16;95388.72;;;8.27;75.39
50394;BME280;36308;46.312;25.288;2022-11-20T08:51:42;95376.41;;;8.31;75.13
50394;BME280;36308;46.312;25.288;2022-11-20T08:54:08;95369.47;;;8.35;75.70
50394;BME280;36308;46.312;25.288;2022-11-20T08:56:34;95357.44;;;8.38;75.54
50394;BME280;36308;46.312;25.288;2022-11-20T08:58:59;95352.16;;;8.43;75.39
50394;BME280;36308;46.312;25.288;2022-11-20T09:01:25;95343.03;;;8.44;75.03
50394;BME280;36308;46.312;25.288;2022-11-20T09:03:51;95337.97;;;8.47;75.32
50394;BME280;36308;46.312;25.288;2022-11-20T09:06:17;95347.63;;;8.54;75.03
50394;BME280;36308;46.312;25.288;2022-11-20T09:12:00;95346.34;;;8.66;75.44
50394;BME280;36308;46.312;25.288;2022-11-20T09:14:26;95345.00;;;8.69;75.57
50394;BME280;36308;46.312;25.288;2022-11-20T09:16:55;95350.94;;;8.76;74.74
50394;BME280;36308;46.312;25.288;2022-11-20T09:19:20;95342.13;;;8.81;74.75
50394;BME280;36308;46.312;25.288;2022-11-20T09:24:54;95355.28;;;8.93;75.01
50394;BME280;36308;46.312;25.288;2022-11-20T09:27:19;95349.38;;;8.96;74.53
50394;BME280;36308;46.312;25.288;2022-11-20T09:29:48;95365.75;;;8.99;74.39
50394;BME280;36308;46.312;25.288;2022-11-20T09:32:13;95367.66;;;9.04;74.44
50394;BME280;36308;46.312;25.288;2022-11-20T09:34:39;95365.50;;;9.06;74.60
50394;BME280;36308;46.312;25.288;2022-11-20T09:37:04;95378.94;;;9.11;73.84
50394;BME280;36308;46.312;25.288;2022-11-20T09:39:29;95384.84;;;9.13;74.91
50394;BME280;36308;46.312;25.288;2022-11-20T09:56:20;95375.78;;;9.35;73.50
50394;BME280;36308;46.312;25.288;2022-11-20T09:58:51;95374.69;;;9.36;73.89
50394;BME280;36308;46.312;25.288;2022-11-20T10:01:19;95368.25;;;9.42;73.91
50394;BME280;36308;46.312;25.288;2022-11-20T10:04:02;95388.13;;;9.46;73.68
50394;BME280;36308;46.312;25.288;2022-11-20T10:07:03;95384.13;;;9.48;73.18
50394;BME280;36308;46.312;25.288;2022-11-20T10:09:34;95372.31;;;9.55;73.53
50394;BME280;36308;46.312;25.288;2022-11-20T10:20:43;95381.72;;;9.73;72.99
50394;BME280;36308;46.312;25.288;2022-11-20T10:26:03;95386.53;;;9.81;73.27
50394;BME280;36308;46.312;25.288;2022-11-20T10:31:08;95385.47;;;9.87;72.17
50394;BME280;36308;46.312;25.288;2022-11-20T10:33:39;95381.19;;;9.91;72.49
50394;BME280;36308;46.312;25.288;2022-11-20T10:36:23;95375.81;;;9.91;72.65
50394;BME280;36308;46.312;25.288;2022-11-20T10:38:58;95361.84;;;9.99;72.90
50394;BME280;36308;46.312;25.288;2022-11-20T10:41:30;95365.31;;;10.00;72.84
50394;BME280;36308;46.312;25.288;2022-11-20T10:44:05;95375.28;;;10.04;72.20
50394;BME280;36308;46.312;25.288;2022-11-20T10:46:44;95381.69;;;10.08;72.42
50394;BME280;36308;46.312;25.288;2022-11-20T10:49:13;95361.81;;;10.09;72.16
50394;BME280;36308;46.312;25.288;2022-11-20T11:02:20;95374.44;;;10.24;72.06
50394;BME280;36308;46.312;25.288;2022-11-20T11:04:49;95380.06;;;10.28;71.72
50394;BME280;36308;46.312;25.288;2022-11-20T11:07:24;95367.19;;;10.30;71.93
50394;BME280;36308;46.312;25.288;2022-11-20T11:09:54;95378.22;;;10.34;72.37
50394;BME280;36308;46.312;25.288;2022-11-20T11:12:22;95375.53;;;10.34;72.27
50394;BME280;36308;46.312;25.288;2022-11-20T11:14:51;95376.31;;;10.39;71.96
50394;BME280;36308;46.312;25.288;2022-11-20T11:17:30;95380.63;;;10.40;71.95
50394;BME280;36308;46.312;25.288;2022-11-20T11:20:16;95376.56;;;10.43;71.74
50394;BME280;36308;46.312;25.288;2022-11-20T11:23:01;95370.41;;;10.42;71.70
50394;BME280;36308;46.312;25.288;2022-11-20T11:25:35;95364.47;;;10.45;71.67
50394;BME280;36308;46.312;25.288;2022-11-20T11:28:17;95366.88;;;10.47;71.10
50394;BME280;36308;46.312;25.288;2022-11-20T11:30:45;95353.19;;;10.48;71.43
50394;BME280;36308;46.312;25.288;2022-11-20T11:33:18;95349.41;;;10.49;71.87
50394;BME280;36308;46.312;25.288;2022-11-20T11:35:47;95356.41;;;10.50;71.74
50394;BME280;36308;46.312;25.288;2022-11-20T11:38:16;95360.97;;;10.50;71.61
50394;BME280;36308;46.312;25.288;2022-11-20T11:40:46;95358.00;;;10.51;71.63
50394;BME280;36308;46.312;25.288;2022-11-20T11:43:20;95369.28;;;10.54;71.01
50394;BME280;36308;46.312;25.288;2022-11-20T11:51:46;95367.66;;;10.58;71.39
50394;BME280;36308;46.312;25.288;2022-11-20T12:05:21;95350.44;;;10.64;71.31
50394;BME280;36308;46.312;25.288;2022-11-20T12:07:50;95348.28;;;10.66;70.61
50394;BME280;36308;46.312;25.288;2022-11-20T12:10:20;95346.69;;;10.65;70.53
50394;BME280;36308;46.312;25.288;2022-11-20T12:12:58;95360.66;;;10.67;70.84
50394;BME280;36308;46.312;25.288;2022-11-20T12:15:29;95356.88;;;10.68;70.64
50394;BME280;36308;46.312;25.288;2022-11-20T12:17:55;95356.59;;;10.64;70.70
50394;BME280;36308;46.312;25.288;2022-11-20T12:20:25;95365.47;;;10.70;70.98
50394;BME280;36308;46.312;25.288;2022-11-20T12:23:16;95353.91;;;10.69;70.79
50394;BME280;36308;46.312;25.288;2022-11-20T12:25:47;95366.25;;;10.70;70.99
50394;BME280;36308;46.312;25.288;2022-11-20T12:36:17;95372.47;;;10.71;70.66
50394;BME280;36308;46.312;25.288;2022-11-20T12:38:54;95370.84;;;10.70;71.32
50394;BME280;36308;46.312;25.288;2022-11-20T12:50:18;95352.59;;;10.67;71.04
50394;BME280;36308;46.312;25.288;2022-11-20T12:53:03;95352.06;;;10.65;70.83
50394;BME280;36308;46.312;25.288;2022-11-20T13:00:54;95361.19;;;10.64;71.36
50394;BME280;36308;46.312;25.288;2022-11-20T13:03:53;95371.94;;;10.64;71.28
50394;BME280;36308;46.312;25.288;2022-11-20T13:06:24;95358.22;;;10.65;71.38
50394;BME280;36308;46.312;25.288;2022-11-20T13:08:54;95355.81;;;10.64;71.49
50394;BME280;36308;46.312;25.288;2022-11-20T13:11:32;95361.19;;;10.64;71.56
50394;BME280;36308;46.312;25.288;2022-11-20T13:14:19;95331.66;;;10.59;71.60
50394;BME280;36308;46.312;25.288;2022-11-20T13:17:00;95336.47;;;10.62;71.62
50394;BME280;36308;46.312;25.288;2022-11-20T13:19:27;95340.25;;;10.61;71.64
50394;BME280;36308;46.312;25.288;2022-11-20T13:21:54;95340.25;;;10.61;72.00
50394;BME280;36308;46.312;25.288;2022-11-20T13:27:03;95328.13;;;10.58;71.47
50394;BME280;36308;46.312;25.288;2022-11-20T13:29:29;95331.34;;;10.60;71.59
50394;BME280;36308;46.312;25.288;2022-11-20T13:34:31;95323.06;;;10.57;71.97
50394;BME280;36308;46.312;25.288;2022-11-20T13:36:58;95323.06;;;10.57;71.68
50394;BME280;36308;46.312;25.288;2022-11-20T13:41:59;95319.84;;;10.55;71.52
50394;BME280;36308;46.312;25.288;2022-11-20T13:46:50;95323.59;;;10.54;71.53
50394;BME280;36308;46.312;25.288;2022-11-20T13:49:29;95328.16;;;10.53;71.84
50394;BME280;36308;46.312;25.288;2022-11-20T13:57:36;95337.06;;;10.48;71.89
50394;BME280;36308;46.312;25.288;2022-11-20T14:00:20;95348.06;;;10.47;72.54
50394;BME280;36308;46.312;25.288;2022-11-20T14:02:59;95347.53;;;10.45;72.35
50394;BME280;36308;46.312;25.288;2022-11-20T14:05:26;95358.56;;;10.43;72.53
50394;BME280;36308;46.312;25.288;2022-11-20T14:07:52;95360.72;;;10.41;72.09
50394;BME280;36308;46.312;25.288;2022-11-20T14:12:45;95359.66;;;10.37;72.59
50394;BME280;36308;46.312;25.288;2022-11-20T14:15:44;95361.28;;;10.33;72.02
50394;BME280;36308;46.312;25.288;2022-11-20T14:18:20;95365.03;;;10.32;72.67
50394;BME280;36308;46.312;25.288;2022-11-20T14:20:47;95367.69;;;10.27;72.02
50394;BME280;36308;46.312;25.288;2022-11-20T14:23:12;95362.31;;;10.27;72.44
50394;BME280;36308;46.312;25.288;2022-11-20T14:25:42;95361.25;;;10.23;71.84
50394;BME280;36308;46.312;25.288;2022-11-20T14:28:24;95372.56;;;10.20;72.26
50394;BME280;36308;46.312;25.288;2022-11-20T14:30:50;95358.06;;;10.16;72.18
50394;BME280;36308;46.312;25.288;2022-11-20T14:33:16;95360.75;;;10.16;72.20
50394;BME280;36308;46.312;25.288;2022-11-20T14:35:50;95358.06;;;10.10;72.42
50394;BME280;36308;46.312;25.288;2022-11-20T14:38:18;95362.34;;;10.06;72.69
50394;BME280;36308;46.312;25.288;2022-11-20T14:40:46;95364.53;;;10.04;72.18
50394;BME280;36308;46.312;25.288;2022-11-20T14:43:30;95369.63;;;10.01;72.97
50394;BME280;36308;46.312;25.288;2022-11-20T14:46:03;95366.41;;;9.99;72.40
50394;BME280;36308;46.312;25.288;2022-11-20T14:48:50;95367.22;;;9.94;72.73
50394;BME280;36308;46.312;25.288;2022-11-20T14:51:33;95373.13;;;9.91;72.62
50394;BME280;36308;46.312;25.288;2022-11-20T14:54:10;95370.97;;;9.88;73.07